createdAt,value
2019-01-12T02:29:19.743Z,50.00
2019-01-12T02:31:58.577Z,57.77
2019-01-12T03:07:31.471Z,57.57
2019-01-12T03:10:12.464Z,53.63
2019-01-12T03:12:53.533Z,53.33
2019-01-12T03:15:34.634Z,51.93
2019-01-12T03:18:15.985Z,54.47
2019-01-12T03:20:57.394Z,51.53
2019-01-12T03:23:38.537Z,55.87
2019-01-12T03:26:19.251Z,55.10
2019-01-12T03:29:00.642Z,58.57
2019-01-12T03:31:41.460Z,55.03
2019-01-12T03:34:23.043Z,54.03
2019-01-12T03:37:04.246Z,53.93
2019-01-12T03:39:44.925Z,52.87
2019-01-12T03:42:25.732Z,50.83
2019-01-12T03:45:06.644Z,52.77
2019-01-12T03:47:48.114Z,54.97
2019-01-12T03:50:29.522Z,52.97
2019-01-12T03:53:10.874Z,55.77
2019-01-12T03:55:52.034Z,54.70
2019-01-12T03:58:32.649Z,57.20
2019-01-12T04:01:13.677Z,53.10
2019-01-12T04:03:54.677Z,51.40
2019-01-12T04:06:34.833Z,52.83
2019-01-12T04:09:23.405Z,54.17
2019-01-12T04:12:04.140Z,52.13
2019-01-12T04:14:45.425Z,49.43
2019-01-12T04:17:26.084Z,53.20
2019-01-12T04:20:07.425Z,51.07
2019-01-12T04:22:48.175Z,59.47
2019-01-12T04:25:33.899Z,55.27
2019-01-12T04:28:12.325Z,49.63
2019-01-12T04:30:53.330Z,51.50
2019-01-12T04:33:34.907Z,55.20
2019-01-12T04:36:15.964Z,50.50
2019-01-12T04:38:56.731Z,51.50
2019-01-12T04:41:37.449Z,49.17
2019-01-12T04:44:18.501Z,53.87
2019-01-12T04:46:59.803Z,53.13
2019-01-12T04:49:40.785Z,51.37
2019-01-12T04:52:22.064Z,50.20
2019-01-12T04:55:03.672Z,52.23
2019-01-12T04:57:45.189Z,51.57
2019-01-12T05:00:26.204Z,54.07
2019-01-12T05:03:07.297Z,53.60
2019-01-12T05:05:47.906Z,52.77
2019-01-12T05:08:28.782Z,49.97
2019-01-12T05:11:09.604Z,48.23
2019-01-12T05:13:51.037Z,47.37
2019-01-12T05:16:32.448Z,53.43
2019-01-12T05:19:13.215Z,52.90
2019-01-12T05:21:54.350Z,57.47
2019-01-12T05:24:35.788Z,58.23
2019-01-12T05:27:16.750Z,53.07
2019-01-12T05:29:58.183Z,55.47
2019-01-12T05:32:39.261Z,56.80
2019-01-12T05:35:20.541Z,53.57
2019-01-12T05:38:01.765Z,54.90
2019-01-12T05:40:42.515Z,52.63
2019-01-12T05:43:22.353Z,57.23
2019-01-12T05:46:10.866Z,54.87
2019-01-12T05:48:51.468Z,51.30
2019-01-12T05:51:31.075Z,50.47
2019-01-12T05:54:11.937Z,52.73
2019-01-12T05:56:52.681Z,56.97
2019-01-12T05:59:34.141Z,51.10
2019-01-12T06:02:14.989Z,55.90
2019-01-12T06:04:56.425Z,60.63
2019-01-12T06:07:37.706Z,59.63
2019-01-12T06:10:18.397Z,60.97
2019-01-12T06:13:00.019Z,53.30
2019-01-12T06:15:41.135Z,53.57
2019-01-12T06:18:21.984Z,56.63
2019-01-12T06:21:02.693Z,59.30
2019-01-12T06:23:43.795Z,58.10
2019-01-12T06:26:25.159Z,61.37
2019-01-12T06:29:06.213Z,53.60
2019-01-12T06:31:47.037Z,60.50
2019-01-12T06:34:28.112Z,58.33
2019-01-12T06:37:09.449Z,55.00
2019-01-12T06:39:50.895Z,57.87
2019-01-12T06:42:31.631Z,53.37
2019-01-12T06:45:13.286Z,51.03
2019-01-12T06:47:53.261Z,55.10
2019-01-12T06:50:41.770Z,52.73
2019-01-12T06:53:22.521Z,52.80
2019-01-12T06:56:03.175Z,52.20
2019-01-12T06:58:44.242Z,49.17
2019-01-12T07:01:25.749Z,50.63
2019-01-12T07:04:07.148Z,46.90
2019-01-12T07:06:46.835Z,50.10
2019-01-12T07:09:26.456Z,44.43
2019-01-12T07:12:14.974Z,49.97
2019-01-12T07:14:56.215Z,52.73
2019-01-12T07:17:37.432Z,50.60
2019-01-12T07:20:17.413Z,47.50
2019-01-12T07:23:05.975Z,47.23
2019-01-12T07:25:46.981Z,45.50
2019-01-12T07:28:28.624Z,44.63
2019-01-12T07:31:08.171Z,45.17
2019-01-12T07:33:56.707Z,48.07
2019-01-12T07:36:37.601Z,45.87
2019-01-12T07:39:19.099Z,48.47
2019-01-12T07:42:00.204Z,42.97
2019-01-12T07:44:41.516Z,49.53
2019-01-12T07:47:23.003Z,44.53
2019-01-12T07:50:03.760Z,47.80
2019-01-12T07:52:43.895Z,49.55
2019-01-12T07:55:32.440Z,45.53
2019-01-12T07:58:11.984Z,47.13
2019-01-12T08:01:00.539Z,47.53
2019-01-12T08:03:41.685Z,51.10
2019-01-12T08:06:23.180Z,49.30
2019-01-12T08:09:04.030Z,32.70
2019-01-12T08:11:45.575Z,43.40
2019-01-12T08:14:26.605Z,38.07
2019-01-12T08:17:07.285Z,46.57
2019-01-12T08:19:48.064Z,45.13
2019-01-12T08:22:29.783Z,44.03
2019-01-12T08:25:10.887Z,41.20
2019-01-12T08:27:51.602Z,50.87
2019-01-12T08:30:32.741Z,44.63
2019-01-12T08:33:14.180Z,46.83
2019-01-12T08:35:55.493Z,49.53
2019-01-12T08:38:36.529Z,48.23
2019-01-12T08:41:17.929Z,46.80
2019-01-12T08:43:57.639Z,53.17
2019-01-12T08:46:39.051Z,46.27
2019-01-12T08:49:20.401Z,44.73
2019-01-12T08:52:01.026Z,45.23
2019-01-12T08:54:40.956Z,45.17
2019-01-12T08:57:22.374Z,49.60
2019-01-12T09:00:03.689Z,46.47
2019-01-12T09:02:44.881Z,51.83
2019-01-12T09:05:26.577Z,42.70
2019-01-12T09:08:06.245Z,44.30
2019-01-12T09:13:54.984Z,40.93
2019-01-12T09:16:36.422Z,43.70
2019-01-12T09:19:17.758Z,42.83
2019-01-12T09:21:58.824Z,42.10
2019-01-12T09:24:39.963Z,41.37
2019-01-12T09:27:21.416Z,45.93
2019-01-12T09:30:02.525Z,43.50
2019-01-12T09:32:42.105Z,48.03
2019-01-12T09:35:23.509Z,41.40
2019-01-12T09:38:03.248Z,44.83
2019-01-12T09:40:44.386Z,53.43
2019-01-12T09:43:26.018Z,44.00
2019-01-12T09:46:07.051Z,45.97
2019-01-12T09:48:48.365Z,44.20
2019-01-12T09:51:29.387Z,45.70
2019-01-12T09:54:09.128Z,51.50
2019-01-12T09:56:51.923Z,47.77
2019-01-12T09:59:33.231Z,47.90
2019-01-12T10:02:14.592Z,50.47
2019-01-12T10:04:55.970Z,48.80
2019-01-12T10:10:35.607Z,48.10
2019-01-12T10:13:17.155Z,39.87
2019-01-12T10:15:57.823Z,43.93
2019-01-12T10:18:38.039Z,43.40
2019-01-12T10:21:19.559Z,47.90
2019-01-12T10:23:59.252Z,45.93
2019-01-12T10:38:34.196Z,39.30
2019-01-12T10:41:14.852Z,39.73
2019-01-12T10:43:56.049Z,36.60
2019-01-12T10:46:36.696Z,35.40
2019-01-12T10:55:16.403Z,38.93
2019-01-12T10:57:57.664Z,42.43
2019-01-12T11:00:38.908Z,40.00
2019-01-12T11:03:20.489Z,38.07
2019-01-12T11:06:01.463Z,37.03
2019-01-12T11:08:42.950Z,40.13
2019-01-12T11:11:23.869Z,37.90
2019-01-12T11:14:04.781Z,35.50
2019-01-12T11:16:45.904Z,39.30
2019-01-12T11:19:27.441Z,38.67
2019-01-12T11:22:08.476Z,42.67
2019-01-12T11:24:49.660Z,36.30
2019-01-12T11:27:32.146Z,39.40
2019-01-12T11:30:13.531Z,38.47
2019-01-12T11:32:54.555Z,40.97
2019-01-12T11:35:35.639Z,37.13
2019-01-12T11:38:16.827Z,37.60
2019-01-12T11:40:57.703Z,31.00
2019-01-12T11:43:39.149Z,34.87
2019-01-12T11:46:20.684Z,34.93
2019-01-12T11:49:02.094Z,37.10
2019-01-12T11:51:43.444Z,35.77
2019-01-12T11:54:24.169Z,34.03
2019-01-12T11:57:04.065Z,34.03
2019-01-12T11:59:45.140Z,34.23
2019-01-12T12:02:26.146Z,30.10
2019-01-12T12:14:03.308Z,37.03
2019-01-12T12:16:42.911Z,37.90
2019-01-12T12:19:24.321Z,36.07
2019-01-12T12:22:05.456Z,39.00
2019-01-12T12:24:46.804Z,40.73
2019-01-12T12:27:27.611Z,41.23
2019-01-12T12:30:08.663Z,43.27
2019-01-12T12:32:48.205Z,41.13
2019-01-12T12:35:29.268Z,44.67
2019-01-12T12:38:10.259Z,40.97
2019-01-12T12:40:51.267Z,41.53
2019-01-12T12:43:31.945Z,41.47
2019-01-12T12:46:13.444Z,39.37
2019-01-12T12:48:54.148Z,36.00
2019-01-12T12:51:35.148Z,35.97
2019-01-12T12:54:16.424Z,35.73
2019-01-12T12:56:58.048Z,36.47
2019-01-12T12:59:38.928Z,37.63
2019-01-12T13:02:20.490Z,39.13
2019-01-12T13:05:01.941Z,35.40
2019-01-12T13:07:43.210Z,39.90
2019-01-12T13:10:25.254Z,39.00
2019-01-12T13:13:06.287Z,25.57
2019-01-12T13:15:47.607Z,40.10
2019-01-12T13:18:28.429Z,37.30
2019-01-12T13:21:09.212Z,38.33
2019-01-12T13:23:48.722Z,40.43
2019-01-12T13:26:37.224Z,38.87
2019-01-12T13:29:18.136Z,37.40
2019-01-12T13:31:59.580Z,38.10
2019-01-12T13:34:40.812Z,39.10
2019-01-12T13:37:22.223Z,40.27
2019-01-12T13:40:04.728Z,39.40
2019-01-12T13:42:44.387Z,32.47
2019-01-12T13:45:23.979Z,32.47
2019-01-12T13:48:12.508Z,34.63
2019-01-12T13:50:53.201Z,40.00
2019-01-12T13:53:34.159Z,39.10
2019-01-12T13:56:15.675Z,40.33
2019-01-12T13:58:56.957Z,41.07
2019-01-12T14:01:40.012Z,34.10
2019-01-12T14:04:20.835Z,37.40
2019-01-12T14:07:01.740Z,36.30
2019-01-12T14:09:42.449Z,37.87
2019-01-12T14:12:23.924Z,33.90
2019-01-12T14:15:03.825Z,38.27
2019-01-12T14:17:45.248Z,41.00
2019-01-12T14:20:26.719Z,43.90
2019-01-12T14:23:07.994Z,38.07
2019-01-12T14:25:48.676Z,34.93
2019-01-12T14:28:29.776Z,39.77
2019-01-12T14:31:10.457Z,40.67
2019-01-12T14:33:51.459Z,41.13
2019-01-12T14:36:32.189Z,38.40
2019-01-12T14:39:13.344Z,41.33
2019-01-12T14:41:54.304Z,38.07
2019-01-12T14:44:35.112Z,37.83
2019-01-12T14:47:16.384Z,38.23
2019-01-12T14:49:57.809Z,34.00
2019-01-12T14:52:38.518Z,46.53
2019-01-12T14:55:18.078Z,43.27
2019-01-12T14:58:07.032Z,42.07
2019-01-12T15:00:48.495Z,40.77
2019-01-12T15:03:28.075Z,39.93
2019-01-12T15:06:09.017Z,46.27
2019-01-12T15:08:49.816Z,21.67
2019-01-12T15:11:29.351Z,44.63
2019-01-12T15:14:17.907Z,43.43
2019-01-12T15:16:59.080Z,41.40
2019-01-12T15:19:40.144Z,41.60
2019-01-12T15:22:21.080Z,44.40
2019-01-12T15:25:02.299Z,43.33
2019-01-12T15:27:43.785Z,43.23
2019-01-12T15:30:24.888Z,34.10
2019-01-12T15:33:05.911Z,41.10
2019-01-12T15:35:54.508Z,45.60
2019-01-12T15:38:35.581Z,45.40
2019-01-12T15:41:17.067Z,44.00
2019-01-12T15:43:57.951Z,43.97
2019-01-12T15:46:39.475Z,44.53
2019-01-12T15:49:20.916Z,46.90
2019-01-12T15:52:02.591Z,49.97
2019-01-12T15:54:43.606Z,41.93
2019-01-12T15:57:23.116Z,41.20
2019-01-12T16:00:04.681Z,42.73
2019-01-12T16:02:45.971Z,42.93
2019-01-12T16:05:27.454Z,45.53
2019-01-12T16:08:07.820Z,50.70
2019-01-12T16:10:48.064Z,43.03
2019-01-12T16:13:28.800Z,44.93
2019-01-12T16:16:10.191Z,45.53
2019-01-12T16:18:51.583Z,52.57
2019-01-12T17:03:13.867Z,57.60
2019-01-12T17:05:55.336Z,61.23
2019-01-12T17:08:36.704Z,63.57
2019-01-12T17:11:17.453Z,57.50
2019-01-12T17:13:58.645Z,68.50
2019-01-12T17:16:39.411Z,63.87
2019-01-12T17:19:20.485Z,62.80
2019-01-12T17:22:01.680Z,64.73
2019-01-12T17:24:43.077Z,64.63
2019-01-12T17:27:24.328Z,62.23
2019-01-12T17:30:05.307Z,64.33
2019-01-12T17:32:46.268Z,72.20
2019-01-12T17:35:27.328Z,70.80
2019-01-12T17:38:08.909Z,78.10
2019-01-12T17:43:49.029Z,75.77
2019-01-12T17:46:30.803Z,73.37
2019-01-12T17:49:12.380Z,69.60
2019-01-12T17:51:54.012Z,71.50
2019-01-12T17:54:34.943Z,69.73
2019-01-12T17:57:16.536Z,73.43
2019-01-12T17:59:57.835Z,75.93
2019-01-12T18:02:38.638Z,76.27
2019-01-12T18:05:19.549Z,72.10
2019-01-12T18:08:00.199Z,77.23
2019-01-12T18:10:41.720Z,70.60
2019-01-12T18:13:21.987Z,71.97
2019-01-12T18:16:01.611Z,67.23
2019-01-12T18:18:50.117Z,77.23
2019-01-12T18:21:31.208Z,70.80
2019-01-12T18:24:11.959Z,68.93
2019-01-12T18:26:52.684Z,68.43
2019-01-12T18:29:34.347Z,72.37
2019-01-12T18:32:15.375Z,75.70
2019-01-12T18:34:56.052Z,71.43
2019-01-12T18:37:37.151Z,64.80
2019-01-12T18:40:18.135Z,62.93
2019-01-12T18:42:59.612Z,69.67
2019-01-12T18:45:41.005Z,75.93
2019-01-12T18:48:22.408Z,69.90
2019-01-12T18:51:03.499Z,65.23
2019-01-12T18:53:44.942Z,72.00
2019-01-12T18:56:24.528Z,64.60
2019-01-12T18:59:05.661Z,67.60
2019-01-12T19:01:45.177Z,68.93
2019-01-12T19:04:26.672Z,68.00
2019-01-12T19:07:07.419Z,72.60
2019-01-12T19:09:48.528Z,72.80
2019-01-12T19:12:28.016Z,73.63
2019-01-12T19:15:09.379Z,74.73
2019-01-12T19:17:50.038Z,76.63
2019-01-12T19:20:30.697Z,74.63
2019-01-12T19:23:11.847Z,69.40
2019-01-12T19:25:52.876Z,69.87
2019-01-12T19:28:34.192Z,69.83
2019-01-12T19:31:15.601Z,69.13
2019-01-12T19:33:56.272Z,76.87
2019-01-12T19:36:37.675Z,70.87
2019-01-12T19:39:19.010Z,77.53
2019-01-12T19:41:59.988Z,75.17
2019-01-12T19:44:40.883Z,80.90
2019-01-12T19:47:20.431Z,75.67
2019-01-12T19:53:00.456Z,78.03
2019-01-12T19:55:41.267Z,79.57
2019-01-12T19:58:22.565Z,88.40
2019-01-12T20:01:03.768Z,78.13
2019-01-12T20:03:45.087Z,74.37
2019-01-12T20:06:26.835Z,81.97
2019-01-12T20:12:06.869Z,78.03
2019-01-12T20:14:47.481Z,76.70
2019-01-12T20:17:28.697Z,81.40
2019-01-12T20:20:09.484Z,83.13
2019-01-12T20:22:50.463Z,78.57
2019-01-12T20:25:31.753Z,77.37
2019-01-12T20:28:12.782Z,83.47
2019-01-12T20:30:53.630Z,78.87
2019-01-12T20:33:34.229Z,83.13
2019-01-12T20:36:15.585Z,82.90
2019-01-12T20:38:56.153Z,78.10
2019-01-12T20:41:37.585Z,79.63
2019-01-12T20:44:18.668Z,79.33
2019-01-12T20:46:59.886Z,80.10
2019-01-12T20:49:41.209Z,75.50
2019-01-12T20:52:22.007Z,80.43
2019-01-12T20:55:03.570Z,77.80
2019-01-12T20:57:44.780Z,81.80
2019-01-12T21:00:26.156Z,81.63
2019-01-12T21:03:07.031Z,75.13
2019-01-12T21:05:48.368Z,77.63
2019-01-12T21:08:29.631Z,81.20
2019-01-12T21:11:14.177Z,82.87
2019-01-12T21:14:21.744Z,84.73
2019-01-12T21:17:02.484Z,84.20
2019-01-12T21:19:48.138Z,85.87
2019-01-12T21:22:26.589Z,84.23
2019-01-12T21:25:07.851Z,87.73
2019-01-12T21:27:49.343Z,84.60
2019-01-12T21:30:30.800Z,85.50
2019-01-12T21:33:12.068Z,84.20
2019-01-12T21:35:53.653Z,86.03
2019-01-12T21:38:34.762Z,82.70
2019-01-12T21:41:15.632Z,85.90
2019-01-12T21:43:56.842Z,90.00
2019-01-12T21:46:37.413Z,82.03
2019-01-12T21:49:18.946Z,87.40
2019-01-12T21:52:00.458Z,90.73
2019-01-12T21:54:42.033Z,88.70
2019-01-12T21:57:23.489Z,83.73
2019-01-12T22:00:04.896Z,86.20
2019-01-12T22:02:45.474Z,89.40
2019-01-12T23:55:22.602Z,79.57
2019-01-12T23:58:02.760Z,86.93
